Time;durP1;ratioP1;P1;durP2;ratioP2;P2;SDS_P1;SDS_P2;PMS_P1;PMS_P2;Temp;Humidity;BMP_temperature;BMP_pressure;BME280_temperature;BME280_humidity;BME280_pressure;Samples;Min_cycle;Max_cycle;Signal;HPM_P1;HPM_P2
2023/01/15 00:01:26;;;;;;;3.83;1.00;;;29.50;97.90;;;;;;5006596;28;20034;-66
2023/01/15 00:03:55;;;;;;;4.22;1.10;;;29.80;96.80;;;;;;5006391;28;20512;-69
2023/01/15 00:06:23;;;;;;;2.10;1.02;;;29.80;96.50;;;;;;4997492;28;20560;-68
2023/01/15 00:08:51;;;;;;;3.40;1.00;;;29.70;96.40;;;;;;5001890;28;20348;-66
2023/01/15 00:11:18;;;;;;;2.00;1.02;;;29.90;96.20;;;;;;4991794;28;20338;-63
2023/01/15 00:13:46;;;;;;;1.48;0.82;;;29.90;96.20;;;;;;5003285;28;20034;-63
2023/01/15 00:16:16;;;;;;;3.65;1.20;;;30.20;96.80;;;;;;5005444;28;20105;-67
2023/01/15 00:18:48;;;;;;;4.57;2.20;;;30.30;96.50;;;;;;4999756;28;20464;-66
2023/01/15 00:21:15;;;;;;;3.05;2.33;;;30.70;96.10;;;;;;5003678;28;20524;-64
2023/01/15 00:29:15;;;;;;;2.35;0.70;;;31.20;94.80;;;;;;5003038;28;20454;-63
2023/01/15 00:31:43;;;;;;;1.60;0.85;;;31.70;93.70;;;;;;5004002;28;20104;-67
2023/01/15 00:34:10;;;;;;;3.25;1.42;;;31.70;93.40;;;;;;5004629;28;20076;-62
2023/01/15 00:36:39;;;;;;;3.35;1.10;;;31.30;94.20;;;;;;5002559;28;20088;-67
2023/01/15 00:39:05;;;;;;;3.50;1.10;;;31.40;93.80;;;;;;5004762;28;20044;-61
2023/01/15 00:41:33;;;;;;;6.35;1.33;;;31.50;94.60;;;;;;5004520;28;20033;-67
2023/01/15 00:44:00;;;;;;;2.58;0.93;;;31.90;94.00;;;;;;5003479;28;20088;-62
2023/01/15 00:46:27;;;;;;;4.63;1.10;;;32.20;92.80;;;;;;5004140;28;20034;-63
2023/01/15 00:48:54;;;;;;;2.85;1.05;;;32.30;92.70;;;;;;5004100;28;20030;-63
2023/01/15 00:51:20;;;;;;;2.67;0.90;;;31.90;93.80;;;;;;5003481;28;20034;-62
2023/01/15 00:53:47;;;;;;;2.90;1.35;;;32.00;93.50;;;;;;5001963;28;20386;-63
2023/01/15 00:56:14;;;;;;;3.20;1.23;;;32.50;92.00;;;;;;5001811;28;20038;-65
2023/01/15 00:58:41;;;;;;;1.90;1.20;;;32.60;91.80;;;;;;4998736;28;20030;-62
2023/01/15 01:01:09;;;;;;;3.83;1.40;;;32.70;91.90;;;;;;5002928;28;20026;-63
2023/01/15 01:03:36;;;;;;;2.08;1.17;;;32.80;91.70;;;;;;5004869;28;20018;-63
2023/01/15 01:06:03;;;;;;;2.95;1.33;;;33.00;92.20;;;;;;5005197;28;20017;-62
2023/01/15 01:08:31;;;;;;;2.92;1.33;;;33.40;91.00;;;;;;5001038;28;20058;-62
2023/01/15 01:11:05;;;;;;;2.95;1.38;;;33.20;91.30;;;;;;5000411;28;20491;-67
2023/01/15 01:13:33;;;;;;;3.50;1.27;;;33.30;91.20;;;;;;5000363;28;20530;-62
2023/01/15 01:16:01;;;;;;;2.85;0.90;;;33.00;91.90;;;;;;5004505;28;20037;-65
2023/01/15 01:18:28;;;;;;;1.48;1.00;;;33.20;91.10;;;;;;5000736;28;20129;-64
2023/01/15 01:20:56;;;;;;;2.20;1.38;;;33.80;91.70;;;;;;5003842;28;20033;-62
2023/01/15 01:23:24;;;;;;;1.60;1.13;;;33.60;90.30;;;;;;5004052;28;20354;-66
2023/01/15 01:25:51;;;;;;;2.05;1.33;;;34.00;90.60;;;;;;4997405;28;20101;-61
2023/01/15 01:28:18;;;;;;;2.95;1.17;;;34.00;89.80;;;;;;5003618;28;20525;-63
2023/01/15 01:30:45;;;;;;;4.20;1.30;;;34.50;90.40;;;;;;5012127;22;20060;-66
2023/01/15 01:33:12;;;;;;;3.33;1.70;;;34.50;87.60;;;;;;5004993;28;20017;-63
2023/01/15 01:35:38;;;;;;;2.33;1.40;;;34.30;87.70;;;;;;5007521;28;20021;-63
2023/01/15 01:38:05;;;;;;;4.18;1.83;;;34.30;88.10;;;;;;5004657;28;20435;-63
2023/01/15 01:40:32;;;;;;;1.92;1.20;;;34.30;88.30;;;;;;5004033;28;20030;-63
2023/01/15 01:42:59;;;;;;;2.97;1.23;;;34.20;87.60;;;;;;5005088;28;20022;-65
2023/01/15 01:45:32;;;;;;;3.55;1.50;;;34.40;89.70;;;;;;5004790;28;20092;-63
2023/01/15 01:48:05;;;;;;;2.45;1.42;;;35.00;89.20;;;;;;5012559;28;20514;-64
2023/01/15 01:50:35;;;;;;;2.72;1.20;;;35.40;89.20;;;;;;5008223;28;20034;-63
2023/01/15 01:53:12;;;;;;;3.00;1.30;;;36.00;87.10;;;;;;5003664;28;20451;-63
2023/01/15 01:55:39;;;;;;;2.92;1.38;;;36.30;87.00;;;;;;5003223;28;20033;-66
2023/01/15 01:58:08;;;;;;;1.55;1.23;;;36.10;85.30;;;;;;5001557;28;20134;-64
2023/01/15 02:00:37;;;;;;;2.85;1.40;;;36.20;87.10;;;;;;5005303;28;20030;-66
2023/01/15 02:03:08;;;;;;;1.42;1.20;;;36.00;87.20;;;;;;5001615;28;20485;-68
2023/01/15 02:05:43;;;;;;;3.47;1.67;;;36.30;86.50;;;;;;5003108;28;20034;-63
2023/01/15 02:08:09;;;;;;;5.38;3.72;;;36.60;86.10;;;;;;5002976;28;20189;-62
2023/01/15 02:10:37;;;;;;;3.58;2.15;;;35.80;83.70;;;;;;5003143;28;20026;-63
2023/01/15 02:13:10;;;;;;;2.00;1.80;;;36.10;85.00;;;;;;5003148;28;20044;-63
2023/01/15 02:15:49;;;;;;;2.90;1.15;;;36.40;85.20;;;;;;5003413;28;20076;-61
2023/01/15 02:18:28;;;;;;;3.80;1.63;;;36.90;83.90;;;;;;5001555;28;20438;-66
2023/01/15 02:21:19;;;;;;;2.25;1.60;;;37.20;82.90;;;;;;5002399;28;20088;-58
2023/01/15 02:23:52;;;;;;;3.83;1.70;;;37.20;80.70;;;;;;4958641;28;20524;-63
2023/01/15 02:26:21;;;;;;;2.05;1.23;;;36.60;81.80;;;;;;4937969;28;20035;-64
2023/01/15 02:28:52;;;;;;;4.78;1.33;;;36.10;81.10;;;;;;4960492;28;20030;-63
2023/01/15 02:31:41;;;;;;;1.98;1.40;;;36.20;82.60;;;;;;4954973;28;20053;-58
2023/01/15 02:34:20;;;;;;;5.40;1.73;;;36.00;81.00;;;;;;4947767;28;20038;-60
2023/01/15 02:36:52;;;;;;;2.17;1.38;;;36.90;80.30;;;;;;4949704;28;20034;-67
2023/01/15 02:39:24;;;;;;;3.60;1.65;;;36.90;80.00;;;;;;4950456;28;20034;-61
2023/01/15 02:41:55;;;;;;;1.65;1.30;;;36.80;80.10;;;;;;4953364;28;20043;-62
2023/01/15 02:44:24;;;;;;;2.28;1.58;;;36.70;79.80;;;;;;4949171;28;20031;-62
2023/01/15 02:46:52;;;;;;;3.75;1.38;;;36.90;82.10;;;;;;4933209;28;20035;-58
2023/01/15 02:49:21;;;;;;;1.45;1.30;;;37.10;82.00;;;;;;4951776;28;20035;-59
2023/01/15 02:51:55;;;;;;;2.17;1.20;;;37.40;82.40;;;;;;4948483;28;20037;-61
2023/01/15 02:54:26;;;;;;;3.20;1.70;;;38.00;80.50;;;;;;4939959;28;20086;-66
2023/01/15 02:56:56;;;;;;;3.47;1.92;;;38.50;79.00;;;;;;4952576;28;20131;-60
2023/01/15 02:59:35;;;;;;;3.10;1.92;;;38.70;79.80;;;;;;4950016;28;20114;-59
2023/01/15 03:02:05;;;;;;;3.28;1.40;;;38.80;79.50;;;;;;5008976;28;20076;-65
2023/01/15 03:04:40;;;;;;;4.00;1.70;;;39.00;79.50;;;;;;5016099;28;20335;-69
2023/01/15 03:07:31;;;;;;;2.58;1.48;;;39.00;75.10;;;;;;5015929;28;20092;-61
2023/01/15 03:09:58;;;;;;;2.15;1.30;;;39.30;74.90;;;;;;5004726;28;20041;-60
2023/01/15 03:13:03;;;;;;;2.97;1.15;;;39.00;76.00;;;;;;5006100;28;20065;-63
2023/01/15 03:18:22;;;;;;;2.55;1.55;;;38.40;77.40;;;;;;5003047;28;20405;-69
2023/01/15 03:20:54;;;;;;;3.58;1.67;;;38.80;78.10;;;;;;4999619;28;20052;-60
2023/01/15 03:23:23;;;;;;;1.35;1.20;;;39.30;75.70;;;;;;5002721;28;20144;-65
2023/01/15 03:25:51;;;;;;;2.47;1.70;;;39.20;76.90;;;;;;5004443;28;20022;-60
2023/01/15 03:28:27;;;;;;;2.80;1.67;;;39.60;76.10;;;;;;5003023;28;20030;-60
2023/01/15 03:30:54;;;;;;;2.05;1.83;;;39.90;77.90;;;;;;5000994;28;20058;-63
2023/01/15 03:33:21;;;;;;;3.28;2.05;;;39.60;73.90;;;;;;5006442;28;20120;-59
2023/01/15 03:35:52;;;;;;;4.07;1.90;;;39.70;74.30;;;;;;5006359;28;20243;-65
2023/01/15 03:38:24;;;;;;;3.33;2.17;;;40.10;72.00;;;;;;5005094;28;20116;-59
2023/01/15 03:41:15;;;;;;;4.13;2.08;;;40.20;72.60;;;;;;5004413;28;20029;-64
2023/01/15 03:44:12;;;;;;;2.90;2.22;;;40.40;74.30;;;;;;5002158;28;20113;-64
2023/01/15 03:46:54;;;;;;;6.53;2.70;;;40.60;71.50;;;;;;5003635;28;20029;-59
2023/01/15 03:49:21;;;;;;;3.35;2.45;;;39.60;71.80;;;;;;5003492;28;20036;-60
2023/01/15 03:52:30;;;;;;;2.65;1.95;;;39.60;75.20;;;;;;5004208;28;20026;-67
2023/01/15 03:55:06;;;;;;;2.95;1.95;;;39.90;72.80;;;;;;4962161;28;20039;-59
2023/01/15 03:57:47;;;;;;;3.30;2.00;;;39.90;73.20;;;;;;4961377;28;20026;-66
2023/01/15 04:00:46;;;;;;;2.95;1.77;;;40.40;74.80;;;;;;4963137;28;20038;-59
2023/01/15 04:03:15;;;;;;;2.10;1.80;;;40.80;71.20;;;;;;4906641;29;20367;-68
2023/01/15 04:05:42;;;;;;;2.63;1.90;;;41.10;72.00;;;;;;4904780;29;20316;-58
2023/01/15 04:08:11;;;;;;;5.93;2.33;;;41.20;70.00;;;;;;4909018;29;20099;-58
2023/01/15 04:11:00;;;;;;;3.13;1.90;;;41.60;72.00;;;;;;4905735;29;20531;-63
2023/01/15 04:13:27;;;;;;;3.53;2.00;;;41.50;72.30;;;;;;4904067;29;20063;-59
2023/01/15 04:15:56;;;;;;;3.00;1.52;;;41.20;75.80;;;;;;4908497;29;20038;-68
2023/01/15 04:18:23;;;;;;;4.32;1.80;;;41.50;72.10;;;;;;4907182;29;20517;-59
2023/01/15 04:20:50;;;;;;;3.40;1.42;;;40.70;72.90;;;;;;4904238;29;20107;-58
2023/01/15 04:23:18;;;;;;;3.65;1.58;;;40.50;74.30;;;;;;4907062;29;20484;-61
2023/01/15 04:25:44;;;;;;;4.00;1.30;;;40.60;75.00;;;;;;4905137;29;20040;-67
2023/01/15 04:28:11;;;;;;;2.70;1.80;;;40.40;74.50;;;;;;4909557;29;20070;-60
2023/01/15 04:30:42;;;;;;;3.67;1.67;;;40.10;76.30;;;;;;4905983;29;20408;-59
2023/01/15 04:33:09;;;;;;;1.73;1.20;;;40.30;75.70;;;;;;4942591;28;20051;-63
2023/01/15 04:35:38;;;;;;;2.47;1.50;;;40.40;75.30;;;;;;4944368;28;20043;-60
2023/01/15 04:38:05;;;;;;;2.58;1.50;;;40.30;75.90;;;;;;4938160;28;20045;-64
2023/01/15 04:46:02;;;;;;;3.55;1.65;;;41.10;74.10;;;;;;4998915;28;20072;-60
2023/01/15 04:48:30;;;;;;;2.25;1.67;;;41.10;74.50;;;;;;5003885;28;20369;-59
2023/01/15 04:50:57;;;;;;;3.63;1.30;;;40.30;74.70;;;;;;5003072;28;20025;-60
2023/01/15 04:53:25;;;;;;;2.85;1.52;;;40.20;75.90;;;;;;5003683;28;20025;-64
2023/01/15 04:55:58;;;;;;;3.70;1.52;;;40.30;75.40;;;;;;5005693;28;20159;-66
2023/01/15 04:58:25;;;;;;;4.10;1.42;;;40.50;76.70;;;;;;5001360;28;20030;-66
2023/01/15 05:00:52;;;;;;;4.00;1.30;;;40.80;74.70;;;;;;5007057;28;20025;-66
2023/01/15 05:03:21;;;;;;;2.42;1.15;;;41.10;74.30;;;;;;5000292;28;20053;-62
2023/01/15 05:05:49;;;;;;;2.25;1.33;;;40.90;73.60;;;;;;5006471;28;20164;-69
2023/01/15 05:08:16;;;;;;;3.38;1.77;;;41.00;75.70;;;;;;5008596;28;20041;-66
2023/01/15 05:10:43;;;;;;;3.03;1.30;;;41.10;74.00;;;;;;5007295;28;20086;-66
2023/01/15 05:13:10;;;;;;;2.42;1.33;;;40.30;77.20;;;;;;5002446;28;20030;-62
2023/01/15 05:15:39;;;;;;;2.72;1.50;;;40.50;75.90;;;;;;5008440;28;20026;-63
2023/01/15 05:18:06;;;;;;;2.38;1.35;;;40.90;75.60;;;;;;5004687;28;20091;-67
2023/01/15 05:20:36;;;;;;;2.20;1.55;;;41.20;75.00;;;;;;5006271;28;20069;-69
2023/01/15 05:23:03;;;;;;;3.25;1.30;;;41.10;75.90;;;;;;5013263;28;20048;-62
2023/01/15 05:25:30;;;;;;;4.40;1.77;;;41.10;75.50;;;;;;5011704;28;20492;-66
2023/01/15 05:27:57;;;;;;;1.88;1.10;;;40.60;73.30;;;;;;5013873;28;20034;-63
2023/01/15 05:30:24;;;;;;;3.55;1.40;;;40.30;75.60;;;;;;5008197;28;20097;-67
2023/01/15 05:32:51;;;;;;;3.53;1.30;;;40.50;75.10;;;;;;5004527;28;20752;-67
2023/01/15 05:35:18;;;;;;;3.15;1.70;;;40.90;75.40;;;;;;5004503;28;20084;-63
2023/01/15 05:37:45;;;;;;;2.88;1.40;;;41.00;73.30;;;;;;5002832;28;20281;-64
2023/01/15 05:40:12;;;;;;;2.35;1.45;;;41.20;74.20;;;;;;5009680;28;20473;-69
2023/01/15 05:42:39;;;;;;;4.43;1.45;;;41.40;74.10;;;;;;5005178;28;20025;-67
2023/01/15 05:45:07;;;;;;;2.40;1.40;;;41.30;73.70;;;;;;5008034;28;20024;-64
2023/01/15 05:47:34;;;;;;;2.60;1.75;;;41.30;74.00;;;;;;5003960;28;20385;-67
2023/01/15 05:50:01;;;;;;;3.10;1.17;;;41.40;72.60;;;;;;5005049;28;20029;-63
2023/01/15 05:52:28;;;;;;;2.08;1.35;;;41.50;73.40;;;;;;5009434;28;20037;-68
2023/01/15 05:54:55;;;;;;;4.80;1.80;;;41.60;74.10;;;;;;5019353;28;20452;-64
2023/01/15 05:57:22;;;;;;;2.17;1.30;;;41.10;73.30;;;;;;5002921;28;20030;-63
2023/01/15 05:59:49;;;;;;;3.50;1.45;;;41.80;73.70;;;;;;5004059;28;20084;-64
2023/01/15 06:02:16;;;;;;;3.78;1.58;;;42.00;72.00;;;;;;5004147;28;20394;-68
2023/01/15 06:04:43;;;;;;;4.25;1.48;;;41.10;73.00;;;;;;4999896;28;20032;-62
2023/01/15 06:07:10;;;;;;;2.35;1.25;;;41.00;71.70;;;;;;5005036;28;20018;-67
2023/01/15 06:09:37;;;;;;;1.90;0.93;;;41.20;73.00;;;;;;5004615;28;20030;-64
2023/01/15 06:12:04;;;;;;;3.08;1.27;;;41.20;72.60;;;;;;5005123;28;20114;-62
2023/01/15 06:14:31;;;;;;;4.15;1.48;;;41.80;72.00;;;;;;5005377;28;20025;-64
2023/01/15 06:16:57;;;;;;;3.15;1.30;;;41.40;70.20;;;;;;5004869;28;20029;-62
2023/01/15 06:19:24;;;;;;;3.38;1.65;;;40.70;72.80;;;;;;5004529;28;20076;-62
2023/01/15 06:21:51;;;;;;;3.00;1.30;;;40.80;73.40;;;;;;5005265;28;20119;-66
2023/01/15 06:24:18;;;;;;;3.13;1.23;;;41.30;73.10;;;;;;5004416;28;20068;-71
2023/01/15 06:26:46;;;;;;;3.10;1.13;;;41.10;70.70;;;;;;5008441;28;20024;-69
2023/01/15 06:29:16;;;;;;;1.50;1.17;;;40.60;71.40;;;;;;5007471;28;20091;-69
2023/01/15 06:31:43;;;;;;;2.15;1.30;;;40.40;74.00;;;;;;5003197;28;20082;-66
2023/01/15 06:34:10;;;;;;;5.05;1.45;;;40.60;72.00;;;;;;5007968;28;20070;-65
2023/01/15 06:36:37;;;;;;;4.75;1.48;;;40.20;71.90;;;;;;5007971;28;20522;-63
2023/01/15 06:39:04;;;;;;;3.13;1.45;;;39.80;72.90;;;;;;5003560;28;20030;-63
2023/01/15 06:47:33;;;;;;;2.03;1.23;;;39.40;73.20;;;;;;5009367;28;20041;-64
2023/01/15 06:50:00;;;;;;;2.42;1.10;;;40.20;72.70;;;;;;4941006;29;20035;-59
2023/01/15 06:52:29;;;;;;;2.85;1.42;;;40.30;73.20;;;;;;4942438;29;20500;-62
2023/01/15 06:54:56;;;;;;;3.05;1.20;;;40.30;72.20;;;;;;4943986;29;20054;-63
2023/01/15 06:57:23;;;;;;;5.60;1.55;;;39.60;72.30;;;;;;4945972;29;20045;-59
2023/01/15 06:59:51;;;;;;;4.70;1.33;;;38.60;73.60;;;;;;4942300;29;20178;-62
2023/01/15 07:02:18;;;;;;;3.33;1.40;;;38.10;74.20;;;;;;4944564;29;20608;-61
2023/01/15 07:04:46;;;;;;;2.13;1.15;;;37.60;74.60;;;;;;4945276;29;20498;-61
2023/01/15 07:07:18;;;;;;;3.42;1.45;;;37.20;75.70;;;;;;4945418;29;20043;-67
2023/01/15 07:09:45;;;;;;;4.68;1.67;;;37.20;75.30;;;;;;4945122;29;20035;-63
2023/01/15 07:12:12;;;;;;;2.80;1.70;;;37.40;75.50;;;;;;4944592;29;20031;-66
2023/01/15 07:14:39;;;;;;;5.80;1.67;;;37.40;76.30;;;;;;4943563;29;20098;-65
2023/01/15 07:17:06;;;;;;;3.45;1.52;;;38.00;76.30;;;;;;4944776;29;20537;-66
2023/01/15 07:19:33;;;;;;;4.30;1.70;;;38.20;74.80;;;;;;4942495;29;20122;-63
2023/01/15 07:22:00;;;;;;;4.45;2.70;;;38.20;74.90;;;;;;4942028;29;20386;-68
2023/01/15 07:24:27;;;;;;;4.82;1.92;;;37.50;74.90;;;;;;4941390;29;20082;-67
2023/01/15 07:26:54;;;;;;;4.90;1.73;;;36.00;76.90;;;;;;4985239;28;20034;-66
2023/01/15 07:29:22;;;;;;;3.33;1.60;;;34.40;79.50;;;;;;5002910;28;20044;-66
2023/01/15 07:31:49;;;;;;;6.10;1.70;;;33.60;81.10;;;;;;5003289;28;20830;-62
2023/01/15 07:34:16;;;;;;;5.43;4.57;;;32.90;82.20;;;;;;5002857;28;20040;-63
2023/01/15 07:36:43;;;;;;;3.85;1.50;;;32.50;82.40;;;;;;5001841;28;20030;-60
2023/01/15 07:39:11;;;;;;;3.85;1.80;;;31.90;83.40;;;;;;5004159;28;20079;-63
2023/01/15 07:50:14;;;;;;;2.10;1.40;;;30.30;86.80;;;;;;4995681;28;20172;-65
2023/01/15 07:52:40;;;;;;;3.30;1.67;;;30.20;87.60;;;;;;4982366;28;20073;-66
2023/01/15 07:55:08;;;;;;;4.65;1.88;;;30.10;88.10;;;;;;4985350;28;20061;-67
2023/01/15 07:57:37;;;;;;;3.17;1.75;;;30.10;88.40;;;;;;4984197;28;20031;-72
2023/01/15 08:00:05;;;;;;;4.25;1.90;;;29.90;89.10;;;;;;4985267;28;20034;-62
2023/01/15 08:02:32;;;;;;;3.70;1.85;;;29.90;90.10;;;;;;4985747;28;20026;-70
2023/01/15 08:04:59;;;;;;;4.15;1.40;;;29.80;90.20;;;;;;4981224;28;20116;-66
2023/01/15 08:07:26;;;;;;;4.88;1.90;;;29.60;90.50;;;;;;4982289;28;20030;-63
2023/01/15 08:09:53;;;;;;;4.65;1.67;;;29.60;90.70;;;;;;4983405;28;20026;-61
2023/01/15 08:15:14;;;;;;;5.10;1.98;;;29.50;90.80;;;;;;4989921;28;20177;-69
2023/01/15 08:17:46;;;;;;;4.97;1.92;;;29.20;90.90;;;;;;4985137;28;20037;-65
2023/01/15 08:20:16;;;;;;;5.90;1.80;;;29.10;91.20;;;;;;4980768;28;20780;-64
2023/01/15 08:22:44;;;;;;;4.68;2.00;;;29.00;91.50;;;;;;4983687;28;20027;-60
2023/01/15 08:25:19;;;;;;;5.38;2.20;;;28.90;91.90;;;;;;4984219;28;20072;-68
2023/01/15 08:27:46;;;;;;;3.42;1.70;;;28.90;92.00;;;;;;4985121;28;20052;-64
2023/01/15 08:30:19;;;;;;;4.20;1.90;;;28.90;92.10;;;;;;4982893;28;20042;-64
2023/01/15 08:32:46;;;;;;;3.15;1.83;;;28.90;92.30;;;;;;4984291;28;20182;-61
2023/01/15 08:35:13;;;;;;;5.82;2.25;;;29.00;92.20;;;;;;4973151;28;20030;-60
2023/01/15 08:37:41;;;;;;;5.68;2.13;;;28.90;92.30;;;;;;4977583;28;20370;-60
2023/01/15 08:40:10;;;;;;;4.03;2.22;;;28.90;92.60;;;;;;4983611;28;20460;-69
2023/01/15 08:42:37;;;;;;;6.13;2.50;;;28.70;92.60;;;;;;4984857;28;20481;-69
2023/01/15 08:45:04;;;;;;;7.45;2.58;;;28.60;92.90;;;;;;4984228;28;20057;-66
2023/01/15 08:47:31;;;;;;;3.80;1.73;;;28.50;93.10;;;;;;4987899;28;20076;-67
2023/01/15 08:49:58;;;;;;;6.55;2.15;;;28.50;93.30;;;;;;4985489;28;20022;-73
2023/01/15 08:52:25;;;;;;;8.52;1.80;;;28.40;93.50;;;;;;4986419;28;20144;-64
2023/01/15 08:54:52;;;;;;;3.88;2.10;;;28.30;94.70;;;;;;4986003;28;20427;-70
2023/01/15 08:57:19;;;;;;;3.72;1.73;;;28.00;95.30;;;;;;4985982;28;20120;-64
2023/01/15 08:59:47;;;;;;;7.28;2.30;;;27.70;97.10;;;;;;4984555;28;20034;-68
2023/01/15 09:02:16;;;;;;;10.85;2.78;;;27.40;97.40;;;;;;4991491;28;20026;-63
2023/01/15 09:04:43;;;;;;;7.38;2.47;;;27.20;99.90;;;;;;4988979;28;20019;-67
2023/01/15 09:07:11;;;;;;;5.88;2.10;;;27.10;99.90;;;;;;4987607;28;20026;-63
2023/01/15 09:09:38;;;;;;;6.35;2.90;;;27.00;99.90;;;;;;4983747;28;20022;-67
2023/01/15 09:12:05;;;;;;;6.00;2.80;;;26.80;99.90;;;;;;4985472;28;20481;-62
2023/01/15 09:14:32;;;;;;;12.10;3.28;;;26.50;99.90;;;;;;4985060;28;20022;-62
2023/01/15 09:16:59;;;;;;;9.73;3.00;;;26.20;99.90;;;;;;4983599;28;20064;-67
2023/01/15 09:19:26;;;;;;;12.50;3.67;;;25.80;99.90;;;;;;4985366;28;20517;-61
2023/01/15 09:21:53;;;;;;;7.60;3.22;;;25.60;99.90;;;;;;4983801;28;20026;-67
2023/01/15 09:24:19;;;;;;;8.93;3.22;;;25.30;99.90;;;;;;4989168;28;20041;-63
2023/01/15 09:26:46;;;;;;;8.52;3.22;;;25.00;99.90;;;;;;4985456;28;20054;-65
2023/01/15 09:29:13;;;;;;;10.52;3.63;;;24.80;99.90;;;;;;4980023;28;20019;-68
2023/01/15 09:31:40;;;;;;;10.32;3.60;;;24.60;99.90;;;;;;4982711;28;20073;-64
2023/01/15 09:34:07;;;;;;;10.18;3.83;;;24.40;99.90;;;;;;4981866;28;20277;-73
2023/01/15 09:36:35;;;;;;;9.20;3.67;;;24.30;99.90;;;;;;4978444;28;20034;-65
2023/01/15 09:39:04;;;;;;;10.10;3.97;;;24.20;99.90;;;;;;4980694;28;20058;-66
2023/01/15 09:42:05;;;;;;;10.40;3.97;;;24.00;99.90;;;;;;4981384;28;20524;-63
2023/01/15 09:44:38;;;;;;;14.05;4.55;;;23.80;99.90;;;;;;4979571;28;20034;-64
2023/01/15 09:47:08;;;;;;;13.43;3.78;;;23.80;99.90;;;;;;4982501;28;20281;-62
2023/01/15 09:49:59;;;;;;;7.70;3.55;;;23.60;99.90;;;;;;4982811;28;20062;-63
2023/01/15 09:52:35;;;;;;;8.75;3.75;;;23.60;99.90;;;;;;4981371;28;20089;-65
2023/01/15 09:55:02;;;;;;;10.32;4.35;;;23.50;99.90;;;;;;4978792;28;20026;-66
2023/01/15 09:57:30;;;;;;;10.88;4.93;;;23.50;99.90;;;;;;4980308;28;20317;-66
2023/01/15 10:00:02;;;;;;;9.85;4.50;;;23.50;99.90;;;;;;4972687;28;20033;-64
2023/01/15 10:02:56;;;;;;;9.07;4.78;;;23.50;99.90;;;;;;4988251;28;20057;-63
2023/01/15 10:05:52;;;;;;;9.85;4.78;;;23.50;99.90;;;;;;4984100;28;20060;-66
2023/01/15 10:08:42;;;;;;;8.07;6.28;;;23.40;99.90;;;;;;4990210;28;20027;-63
2023/01/15 10:12:34;;;;;;;13.02;6.88;;;23.40;99.90;;;;;;4952705;28;20035;-60
2023/01/15 10:14:54;;;;;;;11.10;5.57;;;23.30;99.90;;;;;;4945447;28;20693;-66
2023/01/15 10:17:41;;;;;;;9.57;4.47;;;23.20;99.90;;;;;;4945935;28;20039;-63
2023/01/15 10:20:35;;;;;;;11.32;4.30;;;23.20;99.90;;;;;;4589676;29;9999980;-66
2023/01/15 10:23:15;;;;;;;9.45;4.32;;;23.10;99.90;;;;;;4947912;28;20489;-62
2023/01/15 10:25:54;;;;;;;13.77;4.40;;;23.10;99.90;;;;;;4946827;28;20531;-62
2023/01/15 10:28:28;;;;;;;8.23;4.50;;;23.10;99.90;;;;;;4949031;28;20047;-63
2023/01/15 10:30:58;;;;;;;9.68;4.43;;;23.10;99.90;;;;;;4947074;28;20445;-59
2023/01/15 10:33:46;;;;;;;12.05;4.18;;;23.10;99.90;;;;;;4946779;28;20607;-62
2023/01/15 10:36:35;;;;;;;10.07;3.83;;;23.10;99.90;;;;;;4946688;28;20121;-63
2023/01/15 10:39:07;;;;;;;9.70;3.65;;;23.10;99.90;;;;;;4947206;28;20035;-63
2023/01/15 10:42:05;;;;;;;10.48;4.10;;;23.10;99.90;;;;;;4948960;28;20066;-64
2023/01/15 10:44:51;;;;;;;7.28;3.63;;;23.10;99.90;;;;;;4949085;28;20031;-69
2023/01/15 10:47:28;;;;;;;10.23;4.10;;;23.10;99.90;;;;;;4952733;28;20035;-62
2023/01/15 10:49:58;;;;;;;11.48;3.35;;;23.10;99.90;;;;;;4983271;28;20509;-64
2023/01/15 10:52:34;;;;;;;7.35;3.22;;;23.00;99.90;;;;;;4992036;28;20033;-61
2023/01/15 10:55:25;;;;;;;11.23;3.88;;;22.90;99.90;;;;;;4989695;28;20397;-62
2023/01/15 10:58:18;;;;;;;5.97;2.90;;;22.90;99.90;;;;;;4989029;28;20027;-68
2023/01/15 11:00:56;;;;;;;12.43;4.00;;;22.80;99.90;;;;;;4990826;28;20030;-62
2023/01/15 11:03:42;;;;;;;8.10;3.30;;;22.80;99.90;;;;;;4989607;28;20121;-63
2023/01/15 11:06:20;;;;;;;8.38;3.22;;;22.80;99.90;;;;;;4990160;28;20027;-68
2023/01/15 11:08:57;;;;;;;8.85;3.55;;;22.80;99.90;;;;;;4989257;28;20037;-62
2023/01/15 11:20:16;;;;;;;11.15;4.05;;;23.00;99.90;;;;;;4945922;29;20119;-68
2023/01/15 11:22:44;;;;;;;7.38;3.72;;;23.00;99.90;;;;;;4944336;29;20496;-63
2023/01/15 11:25:11;;;;;;;10.27;3.58;;;23.10;99.90;;;;;;4943325;29;20541;-67
2023/01/15 11:27:38;;;;;;;6.95;3.53;;;23.00;99.90;;;;;;4941905;29;20596;-66
2023/01/15 11:30:07;;;;;;;9.10;4.13;;;23.00;99.90;;;;;;4945168;29;20134;-62
2023/01/15 11:32:36;;;;;;;9.50;4.22;;;23.00;99.90;;;;;;4939781;28;20643;-64
2023/01/15 11:35:23;;;;;;;6.22;3.67;;;22.90;99.90;;;;;;4939412;29;20190;-67
2023/01/15 11:38:00;;;;;;;7.90;3.88;;;22.70;99.90;;;;;;4943330;29;20123;-62
2023/01/15 11:40:27;;;;;;;8.93;3.60;;;22.60;99.90;;;;;;4946733;29;20071;-62
2023/01/15 11:51:33;;;;;;;7.53;3.20;;;22.60;99.90;;;;;;4977812;28;20648;-65
2023/01/15 11:54:04;;;;;;;6.80;3.92;;;22.70;99.90;;;;;;4992105;28;20026;-62
2023/01/15 11:56:32;;;;;;;12.50;3.75;;;22.70;99.90;;;;;;4990339;28;20081;-62
2023/01/15 11:59:08;;;;;;;5.50;3.13;;;22.60;99.90;;;;;;4992495;28;20398;-61
2023/01/15 12:01:49;;;;;;;8.05;3.50;;;22.60;99.90;;;;;;4987642;28;20495;-67
2023/01/15 12:04:55;;;;;;;11.52;3.90;;;22.50;99.90;;;;;;4989359;28;20035;-67
2023/01/15 12:07:25;;;;;;;8.23;3.40;;;22.40;99.90;;;;;;4989614;28;20577;-68
2023/01/15 12:09:55;;;;;;;6.70;2.97;;;22.30;99.90;;;;;;4990348;28;20492;-64
2023/01/15 12:12:43;;;;;;;9.18;4.00;;;22.30;99.90;;;;;;4997417;28;20039;-63
2023/01/15 12:15:33;;;;;;;6.78;3.20;;;22.30;99.90;;;;;;4988550;28;20274;-63
2023/01/15 12:18:08;;;;;;;10.25;3.97;;;22.20;99.90;;;;;;4931559;29;20404;-63
2023/01/15 12:21:03;;;;;;;10.57;3.92;;;22.20;99.90;;;;;;4914621;29;20039;-65
2023/01/15 12:23:48;;;;;;;6.72;4.00;;;22.30;99.90;;;;;;4942310;29;20044;-67
2023/01/15 12:26:28;;;;;;;7.65;4.25;;;22.30;99.90;;;;;;4935043;29;20031;-63
2023/01/15 12:29:34;;;;;;;7.38;3.50;;;22.40;99.90;;;;;;4932514;29;20031;-67
2023/01/15 12:32:12;;;;;;;9.70;3.40;;;22.30;99.90;;;;;;4932552;29;20127;-71
2023/01/15 12:35:06;;;;;;;11.00;4.38;;;22.30;99.90;;;;;;4930751;29;20028;-62
2023/01/15 12:37:44;;;;;;;7.28;3.10;;;22.50;99.90;;;;;;4927328;29;20043;-63
2023/01/15 12:40:14;;;;;;;9.70;3.65;;;22.80;99.90;;;;;;4935725;29;20085;-66
2023/01/15 12:45:43;;;;;;;10.27;3.53;;;22.80;99.90;;;;;;4934023;29;20545;-67
2023/01/15 12:48:39;;;;;;;5.88;2.80;;;22.60;99.90;;;;;;4932517;29;20415;-66
2023/01/15 12:51:08;;;;;;;7.22;3.10;;;22.50;99.90;;;;;;4934969;29;20473;-67
2023/01/15 12:53:44;;;;;;;12.60;3.70;;;22.40;99.90;;;;;;4934626;29;20028;-66
2023/01/15 12:56:53;;;;;;;8.57;3.38;;;22.30;99.90;;;;;;4988443;28;20034;-65
2023/01/15 12:59:47;;;;;;;13.07;3.90;;;22.10;99.90;;;;;;4986564;28;20026;-68
2023/01/15 13:02:26;;;;;;;5.85;3.15;;;21.90;99.90;;;;;;4988452;28;20101;-63
2023/01/15 13:05:11;;;;;;;7.70;3.25;;;21.80;99.90;;;;;;4987419;28;20027;-66
2023/01/15 13:08:15;;;;;;;6.40;3.55;;;21.80;99.90;;;;;;4992646;28;20030;-68
2023/01/15 13:10:43;;;;;;;13.05;3.58;;;21.70;99.90;;;;;;4992516;28;20018;-66
2023/01/15 13:13:17;;;;;;;10.13;3.20;;;21.60;99.90;;;;;;4992434;28;20076;-67
2023/01/15 13:16:14;;;;;;;7.20;3.35;;;21.60;99.90;;;;;;4992853;28;20021;-68
2023/01/15 13:18:49;;;;;;;12.38;3.17;;;21.60;99.90;;;;;;4933572;29;20044;-63
2023/01/15 13:21:19;;;;;;;7.07;2.88;;;21.50;99.90;;;;;;4932903;29;20051;-67
2023/01/15 13:23:57;;;;;;;10.23;3.30;;;21.50;99.90;;;;;;4940155;29;20035;-67
2023/01/15 13:26:53;;;;;;;10.15;3.13;;;21.60;99.90;;;;;;4932294;29;20118;-63
2023/01/15 13:29:29;;;;;;;13.55;3.28;;;21.70;99.90;;;;;;4940839;23;20106;-66
2023/01/15 13:32:25;;;;;;;10.32;3.25;;;21.60;99.90;;;;;;5012333;28;20037;-63
2023/01/15 13:35:05;;;;;;;13.65;3.03;;;21.50;99.90;;;;;;4999397;28;20022;-65
2023/01/15 13:37:43;;;;;;;9.90;2.92;;;21.50;99.90;;;;;;5005205;28;20037;-66
2023/01/15 13:40:21;;;;;;;10.57;2.47;;;21.50;99.90;;;;;;5005423;28;20018;-66
2023/01/15 13:42:49;;;;;;;8.75;3.22;;;21.50;99.90;;;;;;5010611;28;20449;-67
2023/01/15 13:45:16;;;;;;;9.77;3.15;;;21.60;99.90;;;;;;5011707;28;20236;-63
2023/01/15 13:47:51;;;;;;;7.65;2.90;;;21.60;99.90;;;;;;5011352;28;20071;-63
2023/01/15 13:50:33;;;;;;;7.55;2.80;;;21.50;99.90;;;;;;5011494;28;20073;-69
2023/01/15 13:53:16;;;;;;;12.40;3.30;;;21.40;99.90;;;;;;5005303;28;20014;-67
2023/01/15 13:55:55;;;;;;;7.65;2.75;;;21.40;99.90;;;;;;5009357;28;20030;-66
2023/01/15 13:58:26;;;;;;;12.13;2.30;;;21.40;99.90;;;;;;5008159;28;20529;-69
2023/01/15 14:01:04;;;;;;;9.40;2.80;;;21.40;99.90;;;;;;5010360;28;20113;-67
2023/01/15 14:03:37;;;;;;;7.97;2.40;;;21.40;99.90;;;;;;5010997;28;20101;-62
2023/01/15 14:06:07;;;;;;;16.15;3.67;;;21.40;99.90;;;;;;5009936;28;20025;-63